Time;durP1;ratioP1;P1;durP2;ratioP2;P2;SDS_P1;SDS_P2;PMS_P1;PMS_P2;Temp;Humidity;BMP_temperature;BMP_pressure;BME280_temperature;BME280_humidity;BME280_pressure;Samples;Min_cycle;Max_cycle;Signal;HPM_P1;HPM_P2
2022/05/02 00:00:06;;;;;;;;;;;;;;;;;;5033090;28;945;-72
2022/05/02 00:02:32;;;;;;;;;;;;;;;;;;5032568;28;1318;-72
2022/05/02 00:04:59;;;;;;;;;;;;;;;;;;5032953;28;945;-72
2022/05/02 00:07:25;;;;;;;;;;;;;;;;;;5032828;28;886;-72
2022/05/02 00:09:52;;;;;;;;;;;;;;;;;;5032632;28;1048;-72
2022/05/02 00:12:19;;;;;;;;;;;;;;;;;;5032589;28;1395;-72
2022/05/02 00:14:45;;;;;;;;;;;;;;;;;;5032750;28;1119;-72
2022/05/02 00:17:11;;;;;;;;;;;;;;;;;;5032426;28;1914;-72
2022/05/02 00:19:37;;;;;;;;;;;;;;;;;;5032809;28;1076;-72
2022/05/02 00:22:04;;;;;;;;;;;;;;;;;;5031856;28;1298;-72
2022/05/02 00:24:30;;;;;;;;;;;;;;;;;;5032556;28;1112;-72
2022/05/02 00:26:58;;;;;;;;;;;;;;;;;;5030762;28;1108;-72
2022/05/02 00:29:24;;;;;;;;;;;;;;;;;;5032424;28;934;-72
2022/05/02 00:31:50;;;;;;;;;;;;;;;;;;5032128;28;1290;-72
2022/05/02 00:34:16;;;;;;;;;;;;;;;;;;5032365;28;770;-71
2022/05/02 00:36:43;;;;;;;;;;;;;;;;;;5031804;28;1910;-72
2022/05/02 00:39:09;;;;;;;;;;;;;;;;;;5032087;28;964;-72
2022/05/02 00:41:35;;;;;;;;;;;;;;;;;;5032280;28;1296;-72
2022/05/02 00:44:03;;;;;;;;;;;;;;;;;;5030807;28;763;-71
2022/05/02 00:46:29;;;;;;;;;;;;;;;;;;5031876;28;1080;-72
2022/05/02 00:48:55;;;;;;;;;;;;;;;;;;5031939;28;858;-72
2022/05/02 00:51:22;;;;;;;;;;;;;;;;;;5031971;28;1397;-71
2022/05/02 00:53:48;;;;;;;;;;;;;;;;;;5031858;28;700;-72
2022/05/02 00:56:15;;;;;;;;;;;;;;;;;;5031747;28;1926;-72
2022/05/02 00:58:42;;;;;;;;;;;;;;;;;;5031661;28;1076;-72
2022/05/02 01:01:10;;;;;;;;;;;;;;;;;;5031101;28;1199;-72
2022/05/02 01:03:36;;;;;;;;;;;;;;;;;;5031943;28;1379;-72
2022/05/02 01:08:47;;;;;;;;;;;;;;;;;;5031835;28;609;-72
2022/05/02 01:11:13;;;;;;;;;;;;;;;;;;5044034;28;1531;-72
2022/05/02 01:13:40;;;;;;;;;;;;;;;;;;5045375;23;2119;-71
2022/05/02 01:16:12;;;;;;;;;;;;;;;;;;5008304;28;1911;-69
2022/05/02 01:18:38;;;;;;;;;;;;;;;;;;5011295;28;1056;-70
2022/05/02 01:21:09;;;;;;;;;;;;;;;;;;5011436;28;1052;-72
2022/05/02 01:23:35;;;;;;;;;;;;;;;;;;5011389;28;1298;-71
2022/05/02 01:26:01;;;;;;;;;;;;;;;;;;5011466;28;1016;-72
2022/05/02 01:28:28;;;;;;;;;;;;;;;;;;5011362;28;1108;-72
2022/05/02 01:30:55;;;;;;;;;;;;;;;;;;5011428;28;978;-72
2022/05/02 01:33:21;;;;;;;;;;;;;;;;;;5010932;28;1321;-72
2022/05/02 01:35:47;;;;;;;;;;;;;;;;;;5009945;28;1316;-69
2022/05/02 01:38:15;;;;;;;;;;;;;;;;;;5010821;28;1977;-71
2022/05/02 01:40:41;;;;;;;;;;;;;;;;;;5011115;28;1123;-72
2022/05/02 01:43:07;;;;;;;;;;;;;;;;;;5011075;28;1400;-73
2022/05/02 01:45:33;;;;;;;;;;;;;;;;;;5011122;28;783;-72
2022/05/02 01:47:59;;;;;;;;;;;;;;;;;;5010851;28;1138;-73
2022/05/02 01:50:26;;;;;;;;;;;;;;;;;;5010988;28;878;-73
2022/05/02 01:52:52;;;;;;;;;;;;;;;;;;5010868;28;1307;-72
2022/05/02 01:55:19;;;;;;;;;;;;;;;;;;5010494;28;1012;-73
2022/05/02 01:57:47;;;;;;;;;;;;;;;;;;5008022;28;1918;-71
2022/05/02 02:00:13;;;;;;;;;;;;;;;;;;5010415;28;1119;-72
2022/05/02 02:02:42;;;;;;;;;;;;;;;;;;5010867;28;1321;-71
2022/05/02 02:07:52;;;;;;;;;;;;;;;;;;5010266;28;1013;-71
2022/05/02 02:10:20;;;;;;;;;;;;;;;;;;5010639;28;810;-72
2022/05/02 02:12:46;;;;;;;;;;;;;;;;;;5010643;28;1326;-72
2022/05/02 02:15:14;;;;;;;;;;;;;;;;;;5010616;28;1060;-68
2022/05/02 02:17:40;;;;;;;;;;;;;;;;;;5010576;28;1906;-71
2022/05/02 02:20:07;;;;;;;;;;;;;;;;;;5011036;28;2499;-72
2022/05/02 02:22:33;;;;;;;;;;;;;;;;;;5021875;28;1394;-71
2022/05/02 02:25:00;;;;;;;;;;;;;;;;;;5027071;28;1176;-70
2022/05/02 02:27:28;;;;;;;;;;;;;;;;;;5029024;28;1369;-71
2022/05/02 02:29:54;;;;;;;;;;;;;;;;;;5030138;28;947;-72
2022/05/02 02:32:20;;;;;;;;;;;;;;;;;;5030177;28;1388;-71
2022/05/02 02:34:46;;;;;;;;;;;;;;;;;;5028708;28;1493;-71
2022/05/02 02:37:12;;;;;;;;;;;;;;;;;;5031398;28;1971;-71
2022/05/02 02:39:39;;;;;;;;;;;;;;;;;;5031726;28;1036;-71
2022/05/02 02:42:05;;;;;;;;;;;;;;;;;;5030690;28;851;-71
2022/05/02 02:44:33;;;;;;;;;;;;;;;;;;5030086;28;1377;-73
2022/05/02 02:47:00;;;;;;;;;;;;;;;;;;5029880;28;953;-72
2022/05/02 02:49:26;;;;;;;;;;;;;;;;;;5030046;28;775;-72
2022/05/02 02:51:52;;;;;;;;;;;;;;;;;;5029879;28;1119;-72
2022/05/02 02:54:18;;;;;;;;;;;;;;;;;;5029890;28;1314;-71
2022/05/02 02:56:44;;;;;;;;;;;;;;;;;;5029581;28;1910;-72
2022/05/02 02:59:11;;;;;;;;;;;;;;;;;;5029693;28;1067;-73
2022/05/02 03:01:38;;;;;;;;;;;;;;;;;;5029795;28;1119;-72
2022/05/02 03:06:45;;;;;;;;;;;;;;;;;;5029585;28;1008;-71
2022/05/02 03:09:11;;;;;;;;;;;;;;;;;;5032533;28;905;-70
2022/05/02 03:11:37;;;;;;;;;;;;;;;;;;5033472;28;1064;-72
2022/05/02 03:14:03;;;;;;;;;;;;;;;;;;5033454;28;1313;-72
2022/05/02 03:16:29;;;;;;;;;;;;;;;;;;5031743;28;1229;-71
2022/05/02 03:18:57;;;;;;;;;;;;;;;;;;5033675;28;1975;-70
2022/05/02 03:21:23;;;;;;;;;;;;;;;;;;5021084;28;1498;-72
2022/05/02 03:23:49;;;;;;;;;;;;;;;;;;5013918;28;1317;-72
2022/05/02 03:26:15;;;;;;;;;;;;;;;;;;5013646;28;798;-71
2022/05/02 03:28:42;;;;;;;;;;;;;;;;;;5013446;28;878;-72
2022/05/02 03:31:08;;;;;;;;;;;;;;;;;;5013394;28;1135;-72
2022/05/02 03:33:34;;;;;;;;;;;;;;;;;;5011850;28;1438;-71
2022/05/02 03:36:02;;;;;;;;;;;;;;;;;;5013427;28;1067;-71
2022/05/02 03:38:28;;;;;;;;;;;;;;;;;;5013120;28;1910;-71
2022/05/02 03:40:54;;;;;;;;;;;;;;;;;;5013122;28;1009;-71
2022/05/02 03:43:20;;;;;;;;;;;;;;;;;;5013216;28;1400;-72
2022/05/02 03:45:46;;;;;;;;;;;;;;;;;;5013019;28;957;-72
2022/05/02 03:48:12;;;;;;;;;;;;;;;;;;5013343;28;601;-71
2022/05/02 03:50:39;;;;;;;;;;;;;;;;;;5011392;28;1148;-72
2022/05/02 03:53:08;;;;;;;;;;;;;;;;;;5013001;28;1298;-71
2022/05/02 03:55:34;;;;;;;;;;;;;;;;;;5012903;28;1024;-71
2022/05/02 03:58:02;;;;;;;;;;;;;;;;;;5008528;28;1914;-71
2022/05/02 04:00:28;;;;;;;;;;;;;;;;;;5006706;28;1218;-71
2022/05/02 04:02:54;;;;;;;;;;;;;;;;;;5012550;28;1519;-72
2022/05/02 04:05:20;;;;;;;;;;;;;;;;;;5011509;28;1258;-72
2022/05/02 04:07:47;;;;;;;;;;;;;;;;;;5009917;28;1423;-73
2022/05/02 04:10:14;;;;;;;;;;;;;;;;;;5002252;28;1377;-73
2022/05/02 04:12:42;;;;;;;;;;;;;;;;;;5004151;28;1474;-73
2022/05/02 04:15:10;;;;;;;;;;;;;;;;;;5010111;28;1408;-73
2022/05/02 04:17:36;;;;;;;;;;;;;;;;;;5005789;28;1914;-72
2022/05/02 04:20:02;;;;;;;;;;;;;;;;;;5008896;28;1417;-75
2022/05/02 04:22:29;;;;;;;;;;;;;;;;;;5010038;28;1429;-73
2022/05/02 04:24:55;;;;;;;;;;;;;;;;;;5009524;28;1357;-73
2022/05/02 04:27:22;;;;;;;;;;;;;;;;;;5005152;28;1341;-73
2022/05/02 04:29:48;;;;;;;;;;;;;;;;;;5007733;28;1240;-73
2022/05/02 04:32:15;;;;;;;;;;;;;;;;;;5011886;28;1211;-72
2022/05/02 04:34:41;;;;;;;;;;;;;;;;;;5011415;28;1427;-73
2022/05/02 04:37:08;;;;;;;;;;;;;;;;;;5010471;28;1918;-72
2022/05/02 04:39:34;;;;;;;;;;;;;;;;;;5011506;28;1326;-73
2022/05/02 04:42:00;;;;;;;;;;;;;;;;;;5011602;28;1302;-73
2022/05/02 04:44:28;;;;;;;;;;;;;;;;;;5011799;28;1306;-72
2022/05/02 04:46:54;;;;;;;;;;;;;;;;;;5010383;28;1346;-73
2022/05/02 04:49:20;;;;;;;;;;;;;;;;;;5012121;28;1142;-73
2022/05/02 04:51:46;;;;;;;;;;;;;;;;;;5011899;28;1139;-73
2022/05/02 04:54:13;;;;;;;;;;;;;;;;;;5011674;28;1370;-72
2022/05/02 04:56:39;;;;;;;;;;;;;;;;;;5011708;28;1131;-73
2022/05/02 04:59:05;;;;;;;;;;;;;;;;;;5011562;28;1895;-72
2022/05/02 05:01:32;;;;;;;;;;;;;;;;;;5011851;28;884;-72
2022/05/02 05:03:59;;;;;;;;;;;;;;;;;;5011661;28;1360;-72
2022/05/02 05:06:25;;;;;;;;;;;;;;;;;;5011530;28;1072;-72
2022/05/02 05:08:51;;;;;;;;;;;;;;;;;;5011636;28;891;-72
2022/05/02 05:11:22;;;;;;;;;;;;;;;;;;5011664;28;1079;-73
2022/05/02 05:16:20;;;;;;;;;;;;;;;;;;5010029;28;1320;-73
2022/05/02 05:16:40;;;;;;;;;;;;;;;;;;5010857;28;1143;-71
2022/05/02 05:19:12;;;;;;;;;;;;;;;;;;5011626;28;1918;-73
2022/05/02 05:21:42;;;;;;;;;;;;;;;;;;5014448;28;1230;-72
2022/05/02 05:24:14;;;;;;;;;;;;;;;;;;5019541;28;1338;-72
2022/05/02 05:26:44;;;;;;;;;;;;;;;;;;5009283;28;1020;-72
2022/05/02 05:29:13;;;;;;;;;;;;;;;;;;5010688;28;1079;-72
2022/05/02 05:31:44;;;;;;;;;;;;;;;;;;5010526;28;775;-72
2022/05/02 05:34:16;;;;;;;;;;;;;;;;;;5010725;28;1310;-73
2022/05/02 05:36:44;;;;;;;;;;;;;;;;;;5009079;28;1250;-72
2022/05/02 05:39:11;;;;;;;;;;;;;;;;;;5010785;28;1985;-72
2022/05/02 05:41:41;;;;;;;;;;;;;;;;;;5008916;28;945;-72
2022/05/02 05:44:11;;;;;;;;;;;;;;;;;;5010820;28;1325;-73
2022/05/02 05:46:45;;;;;;;;;;;;;;;;;;5010545;28;1114;-71
2022/05/02 05:49:13;;;;;;;;;;;;;;;;;;5009456;28;949;-72
2022/05/02 05:51:41;;;;;;;;;;;;;;;;;;5009943;28;1064;-72
2022/05/02 05:54:18;;;;;;;;;;;;;;;;;;5012222;28;2004;-73
2022/05/02 05:56:47;;;;;;;;;;;;;;;;;;5022059;28;1133;-72
2022/05/02 05:59:17;;;;;;;;;;;;;;;;;;5010671;28;1918;-72
2022/05/02 06:01:50;;;;;;;;;;;;;;;;;;5010124;28;1072;-73
2022/05/02 06:04:17;;;;;;;;;;;;;;;;;;5010717;28;1381;-72
2022/05/02 06:06:43;;;;;;;;;;;;;;;;;;5010101;28;1064;-71
2022/05/02 06:09:09;;;;;;;;;;;;;;;;;;5009419;28;1198;-72
2022/05/02 06:11:35;;;;;;;;;;;;;;;;;;5009743;28;1131;-72
2022/05/02 06:14:02;;;;;;;;;;;;;;;;;;5009976;28;1397;-73
2022/05/02 06:19:16;;;;;;;;;;;;;;;;;;5010406;28;1980;-72
2022/05/02 06:21:42;;;;;;;;;;;;;;;;;;5009693;28;1114;-72
2022/05/02 06:24:09;;;;;;;;;;;;;;;;;;5010191;28;1290;-72
2022/05/02 06:26:35;;;;;;;;;;;;;;;;;;5010007;28;1127;-73
2022/05/02 06:29:02;;;;;;;;;;;;;;;;;;5010235;28;997;-73
2022/05/02 06:31:29;;;;;;;;;;;;;;;;;;5010183;28;1085;-72
2022/05/02 06:33:57;;;;;;;;;;;;;;;;;;5017978;28;1924;-73
2022/05/02 06:36:36;;;;;;;;;;;;;;;;;;5029580;28;1141;-73
2022/05/02 06:39:04;;;;;;;;;;;;;;;;;;5029755;28;1914;-72
2022/05/02 06:41:34;;;;;;;;;;;;;;;;;;5021633;28;1956;-73
2022/05/02 06:44:02;;;;;;;;;;;;;;;;;;5031527;28;1441;-73
2022/05/02 06:46:29;;;;;;;;;;;;;;;;;;5025400;28;1828;-72
2022/05/02 06:48:56;;;;;;;;;;;;;;;;;;5033574;28;1126;-72
2022/05/02 06:51:23;;;;;;;;;;;;;;;;;;5033674;28;1059;-73
2022/05/02 06:53:59;;;;;;;;;;;;;;;;;;5033258;28;1356;-72
2022/05/02 06:56:28;;;;;;;;;;;;;;;;;;5023426;28;2099;-72
2022/05/02 06:58:58;;;;;;;;;;;;;;;;;;5033229;28;1918;-73
2022/05/02 07:01:25;;;;;;;;;;;;;;;;;;5033053;28;806;-72
2022/05/02 07:04:07;;;;;;;;;;;;;;;;;;5033200;28;1338;-72
2022/05/02 07:06:38;;;;;;;;;;;;;;;;;;5032851;28;1027;-72
2022/05/02 07:09:05;;;;;;;;;;;;;;;;;;5033770;28;1063;-73
2022/05/02 07:11:38;;;;;;;;;;;;;;;;;;5033189;28;782;-72
2022/05/02 07:14:07;;;;;;;;;;;;;;;;;;5033572;28;1435;-73
2022/05/02 07:16:35;;;;;;;;;;;;;;;;;;5032092;28;957;-72
2022/05/02 07:19:06;;;;;;;;;;;;;;;;;;5033222;28;1981;-73
2022/05/02 07:21:37;;;;;;;;;;;;;;;;;;5033374;28;1071;-74
2022/05/02 07:24:10;;;;;;;;;;;;;;;;;;5033471;28;1418;-71
2022/05/02 07:26:37;;;;;;;;;;;;;;;;;;5031061;28;1526;-73
2022/05/02 07:29:04;;;;;;;;;;;;;;;;;;5013620;28;1076;-72
2022/05/02 07:31:30;;;;;;;;;;;;;;;;;;5037136;23;3545;-72
2022/05/02 07:33:56;;;;;;;;;;;;;;;;;;5031698;28;1124;-69
2022/05/02 07:36:23;;;;;;;;;;;;;;;;;;5032338;28;1072;-68
2022/05/02 07:38:50;;;;;;;;;;;;;;;;;;5032101;28;1910;-71
2022/05/02 07:41:25;;;;;;;;;;;;;;;;;;5032512;28;1342;-70
2022/05/02 07:43:52;;;;;;;;;;;;;;;;;;5032378;28;921;-70
2022/05/02 07:46:20;;;;;;;;;;;;;;;;;;5032455;28;1072;-69
2022/05/02 07:48:46;;;;;;;;;;;;;;;;;;5032712;28;949;-68
2022/05/02 07:51:12;;;;;;;;;;;;;;;;;;5032150;28;1313;-71
2022/05/02 07:53:38;;;;;;;;;;;;;;;;;;5031910;28;1048;-70
2022/05/02 07:56:05;;;;;;;;;;;;;;;;;;5032165;28;799;-71
2022/05/02 07:58:33;;;;;;;;;;;;;;;;;;5032100;28;1914;-69
2022/05/02 08:00:59;;;;;;;;;;;;;;;;;;5032023;28;1287;-70
2022/05/02 08:03:27;;;;;;;;;;;;;;;;;;5033011;28;1011;-71
2022/05/02 08:05:55;;;;;;;;;;;;;;;;;;5031049;28;2002;-71
2022/05/02 08:08:22;;;;;;;;;;;;;;;;;;5026000;28;1785;-70
2022/05/02 08:10:52;;;;;;;;;;;;;;;;;;5028490;28;1392;-68
2022/05/02 08:13:26;;;;;;;;;;;;;;;;;;5029447;28;2010;-70
2022/05/02 08:15:55;;;;;;;;;;;;;;;;;;5031275;28;1161;-69
2022/05/02 08:18:26;;;;;;;;;;;;;;;;;;5020311;28;1999;-70
2022/05/02 08:20:55;;;;;;;;;;;;;;;;;;5025847;28;1844;-69
2022/05/02 08:29:10;;;;;;;;;;;;;;;;;;5031617;28;1198;-70
2022/05/02 08:31:41;;;;;;;;;;;;;;;;;;5031131;28;1399;-70
2022/05/02 08:34:12;;;;;;;;;;;;;;;;;;5031717;28;1079;-70
2022/05/02 08:36:39;;;;;;;;;;;;;;;;;;5030055;28;1205;-70
2022/05/02 08:39:06;;;;;;;;;;;;;;;;;;5031705;28;1983;-69
2022/05/02 08:41:43;;;;;;;;;;;;;;;;;;5030924;28;1389;-70
2022/05/02 08:44:33;;;;;;;;;;;;;;;;;;5031379;28;776;-70
2022/05/02 08:47:10;;;;;;;;;;;;;;;;;;5030765;28;1092;-68
2022/05/02 08:49:49;;;;;;;;;;;;;;;;;;5028077;28;1894;-69
2022/05/02 08:52:28;;;;;;;;;;;;;;;;;;5030083;28;1740;-69
2022/05/02 08:55:06;;;;;;;;;;;;;;;;;;5030176;28;1982;-69
2022/05/02 08:57:36;;;;;;;;;;;;;;;;;;5030699;28;859;-69
2022/05/02 09:00:07;;;;;;;;;;;;;;;;;;5031063;28;1946;-69
2022/05/02 09:02:48;;;;;;;;;;;;;;;;;;5030147;28;1297;-69
2022/05/02 09:05:31;;;;;;;;;;;;;;;;;;5028131;28;1191;-67
2022/05/02 09:08:03;;;;;;;;;;;;;;;;;;5029356;28;1443;-68
2022/05/02 09:10:31;;;;;;;;;;;;;;;;;;5030710;28;1407;-70
2022/05/02 09:13:03;;;;;;;;;;;;;;;;;;5030567;28;1012;-69
2022/05/02 09:15:37;;;;;;;;;;;;;;;;;;5030722;28;1119;-68
2022/05/02 09:18:12;;;;;;;;;;;;;;;;;;5030058;28;1200;-69
2022/05/02 09:20:56;;;;;;;;;;;;;;;;;;5027767;28;1985;-70
2022/05/02 09:23:41;;;;;;;;;;;;;;;;;;5028983;28;1181;-70
2022/05/02 09:26:14;;;;;;;;;;;;;;;;;;5027392;28;1308;-69
2022/05/02 09:28:45;;;;;;;;;;;;;;;;;;5027604;28;1316;-70
2022/05/02 09:31:17;;;;;;;;;;;;;;;;;;5030102;28;1267;-69
2022/05/02 09:33:45;;;;;;;;;;;;;;;;;;5030481;28;967;-69
2022/05/02 09:36:24;;;;;;;;;;;;;;;;;;5030074;28;1132;-70
2022/05/02 09:38:52;;;;;;;;;;;;;;;;;;5028893;28;1984;-69
2022/05/02 09:41:28;;;;;;;;;;;;;;;;;;5029896;28;1298;-70
2022/05/02 09:49:36;;;;;;;;;;;;;;;;;;5030288;28;803;-70
2022/05/02 09:52:05;;;;;;;;;;;;;;;;;;5030041;28;1424;-70
2022/05/02 09:57:21;;;;;;;;;;;;;;;;;;5029315;28;956;-70
2022/05/02 09:59:48;;;;;;;;;;;;;;;;;;5028757;28;1977;-71
2022/05/02 10:02:17;;;;;;;;;;;;;;;;;;5029664;28;1358;-70
2022/05/02 10:04:45;;;;;;;;;;;;;;;;;;5030214;28;907;-71
2022/05/02 10:07:11;;;;;;;;;;;;;;;;;;5029535;28;1075;-69
2022/05/02 10:09:49;;;;;;;;;;;;;;;;;;5030616;28;1231;-70
2022/05/02 10:12:25;;;;;;;;;;;;;;;;;;5030800;28;1387;-70
2022/05/02 10:14:57;;;;;;;;;;;;;;;;;;5030076;28;1307;-71
2022/05/02 10:17:41;;;;;;;;;;;;;;;;;;5029213;28;1072;-70
2022/05/02 10:20:12;;;;;;;;;;;;;;;;;;5028524;28;1918;-70
2022/05/02 10:22:44;;;;;;;;;;;;;;;;;;5029313;28;1374;-71
2022/05/02 10:25:13;;;;;;;;;;;;;;;;;;5029851;28;1072;-70
2022/05/02 10:27:41;;;;;;;;;;;;;;;;;;5029570;28;1118;-71
2022/05/02 10:30:08;;;;;;;;;;;;;;;;;;5030412;28;1108;-71
2022/05/02 10:32:38;;;;;;;;;;;;;;;;;;5029294;28;1373;-70
2022/05/02 10:35:04;;;;;;;;;;;;;;;;;;5029859;28;1076;-70
2022/05/02 10:37:32;;;;;;;;;;;;;;;;;;5029817;28;1076;-70
2022/05/02 10:39:59;;;;;;;;;;;;;;;;;;5029658;28;1906;-68
2022/05/02 10:42:26;;;;;;;;;;;;;;;;;;5029323;28;1391;-71
2022/05/02 10:44:56;;;;;;;;;;;;;;;;;;5030135;28;1083;-68
2022/05/02 10:47:23;;;;;;;;;;;;;;;;;;5029490;28;1147;-70
2022/05/02 10:49:54;;;;;;;;;;;;;;;;;;5029645;28;735;-71
2022/05/02 10:52:21;;;;;;;;;;;;;;;;;;5029322;28;1441;-70
2022/05/02 10:54:48;;;;;;;;;;;;;;;;;;5030102;28;1051;-69
2022/05/02 10:57:18;;;;;;;;;;;;;;;;;;5029576;28;952;-70
2022/05/02 10:59:46;;;;;;;;;;;;;;;;;;5030063;28;1910;-70
2022/05/02 11:02:22;;;;;;;;;;;;;;;;;;5029451;28;1346;-71
2022/05/02 11:04:52;;;;;;;;;;;;;;;;;;5029736;28;1123;-70
2022/05/02 11:07:20;;;;;;;;;;;;;;;;;;5029013;28;829;-70
2022/05/02 11:09:50;;;;;;;;;;;;;;;;;;5029895;28;961;-71
2022/05/02 11:12:18;;;;;;;;;;;;;;;;;;5029335;28;1309;-70
2022/05/02 11:14:48;;;;;;;;;;;;;;;;;;5029908;28;1115;-71
2022/05/02 11:17:16;;;;;;;;;;;;;;;;;;5029420;28;790;-71
2022/05/02 11:22:31;;;;;;;;;;;;;;;;;;5028037;28;1376;-69
2022/05/02 11:25:01;;;;;;;;;;;;;;;;;;5028214;28;1527;-69
2022/05/02 11:27:30;;;;;;;;;;;;;;;;;;5026808;28;1089;-70
2022/05/02 11:30:00;;;;;;;;;;;;;;;;;;5033026;28;1075;-71
2022/05/02 11:32:29;;;;;;;;;;;;;;;;;;5032552;28;1326;-71
2022/05/02 11:34:59;;;;;;;;;;;;;;;;;;5033305;28;933;-70
2022/05/02 11:37:31;;;;;;;;;;;;;;;;;;5031358;28;846;-70
2022/05/02 11:39:58;;;;;;;;;;;;;;;;;;5032787;28;1914;-68
2022/05/02 11:42:26;;;;;;;;;;;;;;;;;;5032453;28;1322;-70
2022/05/02 11:44:52;;;;;;;;;;;;;;;;;;5033048;28;886;-71
2022/05/02 11:47:23;;;;;;;;;;;;;;;;;;5032418;28;878;-71
2022/05/02 11:49:58;;;;;;;;;;;;;;;;;;5031494;28;1234;-71
2022/05/02 11:52:29;;;;;;;;;;;;;;;;;;5032196;28;1333;-71
2022/05/02 11:54:57;;;;;;;;;;;;;;;;;;5032775;28;861;-70
2022/05/02 11:57:29;;;;;;;;;;;;;;;;;;5032130;28;1076;-70
2022/05/02 11:59:58;;;;;;;;;;;;;;;;;;5032099;28;1914;-71
2022/05/02 12:02:32;;;;;;;;;;;;;;;;;;5031972;28;1318;-71
2022/05/02 12:04:58;;;;;;;;;;;;;;;;;;5032453;28;940;-70
2022/05/02 12:07:28;;;;;;;;;;;;;;;;;;5031911;28;1083;-70
2022/05/02 12:09:59;;;;;;;;;;;;;;;;;;5032318;28;1127;-71
2022/05/02 12:12:25;;;;;;;;;;;;;;;;;;5031817;28;1321;-71
2022/05/02 12:14:55;;;;;;;;;;;;;;;;;;5031339;28;1212;-69
2022/05/02 12:17:21;;;;;;;;;;;;;;;;;;5031933;28;1257;-69
2022/05/02 12:19:49;;;;;;;;;;;;;;;;;;5031720;28;1969;-70
2022/05/02 12:22:16;;;;;;;;;;;;;;;;;;5031625;28;1311;-70
2022/05/02 12:24:44;;;;;;;;;;;;;;;;;;5032398;28;1115;-71
2022/05/02 12:27:11;;;;;;;;;;;;;;;;;;5030658;28;1217;-70
2022/05/02 12:29:37;;;;;;;;;;;;;;;;;;5031785;28;1063;-71
2022/05/02 12:32:04;;;;;;;;;;;;;;;;;;5030313;28;1358;-69
2022/05/02 12:34:35;;;;;;;;;;;;;;;;;;5031843;28;858;-70
2022/05/02 12:37:03;;;;;;;;;;;;;;;;;;5031412;28;1108;-71
2022/05/02 12:39:35;;;;;;;;;;;;;;;;;;5030929;28;1973;-70
2022/05/02 12:42:02;;;;;;;;;;;;;;;;;;5031433;28;1297;-70
2022/05/02 12:44:30;;;;;;;;;;;;;;;;;;5031666;28;1330;-70
2022/05/02 12:46:57;;;;;;;;;;;;;;;;;;5031565;28;1133;-70
2022/05/02 12:49:26;;;;;;;;;;;;;;;;;;5031557;28;798;-71
2022/05/02 12:51:52;;;;;;;;;;;;;;;;;;5031243;28;1325;-69
2022/05/02 12:54:21;;;;;;;;;;;;;;;;;;5031476;28;1147;-71
2022/05/02 13:00:30;;;;;;;;;;;;;;;;;;5031240;28;983;-70
2022/05/02 13:02:33;;;;;;;;;;;;;;;;;;5029367;28;1361;-71
2022/05/02 13:05:00;;;;;;;;;;;;;;;;;;5031300;28;882;-70
2022/05/02 13:07:26;;;;;;;;;;;;;;;;;;5030917;28;953;-71
2022/05/02 13:09:54;;;;;;;;;;;;;;;;;;5031279;28;1071;-71
2022/05/02 13:12:22;;;;;;;;;;;;;;;;;;5030785;28;1397;-71
2022/05/02 13:14:48;;;;;;;;;;;;;;;;;;5030531;28;1483;-70
2022/05/02 13:17:14;;;;;;;;;;;;;;;;;;5031012;28;1124;-71
2022/05/02 13:19:42;;;;;;;;;;;;;;;;;;5031024;28;1918;-71
2022/05/02 13:22:08;;;;;;;;;;;;;;;;;;5029354;28;1338;-71
2022/05/02 13:24:37;;;;;;;;;;;;;;;;;;5031243;28;1067;-71
2022/05/02 13:27:15;;;;;;;;;;;;;;;;;;5030986;28;1080;-70
2022/05/02 13:29:48;;;;;;;;;;;;;;;;;;5029688;28;957;-72
2022/05/02 13:32:16;;;;;;;;;;;;;;;;;;5041451;23;3751;-72
2022/05/02 13:34:45;;;;;;;;;;;;;;;;;;5028890;28;1162;-72
2022/05/02 13:37:16;;;;;;;;;;;;;;;;;;5028839;28;893;-71
2022/05/02 13:39:46;;;;;;;;;;;;;;;;;;5028340;28;1100;-72
2022/05/02 13:42:14;;;;;;;;;;;;;;;;;;5038088;28;1336;-72
2022/05/02 13:44:43;;;;;;;;;;;;;;;;;;5049313;28;917;-73
2022/05/02 13:47:10;;;;;;;;;;;;;;;;;;5050484;28;1107;-73
2022/05/02 13:49:42;;;;;;;;;;;;;;;;;;5054873;28;1204;-72
2022/05/02 13:52:14;;;;;;;;;;;;;;;;;;5069431;28;1350;-72
2022/05/02 13:54:40;;;;;;;;;;;;;;;;;;5070448;28;1063;-71
2022/05/02 13:57:12;;;;;;;;;;;;;;;;;;5069123;28;1355;-72
2022/05/02 13:59:40;;;;;;;;;;;;;;;;;;5070551;28;1072;-73
2022/05/02 14:02:09;;;;;;;;;;;;;;;;;;5039906;28;1976;-72
2022/05/02 14:04:40;;;;;;;;;;;;;;;;;;5030862;28;1052;-72
2022/05/02 14:07:11;;;;;;;;;;;;;;;;;;5028896;28;875;-72
2022/05/02 14:09:44;;;;;;;;;;;;;;;;;;5030708;28;1072;-71
2022/05/02 14:12:14;;;;;;;;;;;;;;;;;;5030595;28;1353;-71
2022/05/02 14:14:52;;;;;;;;;;;;;;;;;;5030524;28;1052;-74
2022/05/02 14:17:28;;;;;;;;;;;;;;;;;;5029304;28;1159;-72
2022/05/02 14:19:57;;;;;;;;;;;;;;;;;;5030570;28;1096;-72
2022/05/02 14:22:33;;;;;;;;;;;;;;;;;;5039775;28;2200;-73
2022/05/02 14:25:00;;;;;;;;;;;;;;;;;;5048481;28;1191;-73
2022/05/02 14:27:26;;;;;;;;;;;;;;;;;;5049200;28;1292;-73
2022/05/02 14:29:52;;;;;;;;;;;;;;;;;;5050589;28;1471;-73
2022/05/02 14:32:18;;;;;;;;;;;;;;;;;;5050159;28;2040;-73
2022/05/02 14:34:46;;;;;;;;;;;;;;;;;;5050353;28;650;-71
2022/05/02 14:37:12;;;;;;;;;;;;;;;;;;5050187;28;913;-72
2022/05/02 14:39:39;;;;;;;;;;;;;;;;;;5059113;28;1213;-74
2022/05/02 14:42:05;;;;;;;;;;;;;;;;;;5070413;28;1903;-73
2022/05/02 14:44:31;;;;;;;;;;;;;;;;;;5070303;28;1122;-73
2022/05/02 14:47:00;;;;;;;;;;;;;;;;;;5070789;28;948;-73
2022/05/02 14:49:26;;;;;;;;;;;;;;;;;;5070866;28;956;-73
2022/05/02 14:51:54;;;;;;;;;;;;;;;;;;5070410;28;1305;-73
2022/05/02 14:54:20;;;;;;;;;;;;;;;;;;5070458;28;854;-73
2022/05/02 14:56:46;;;;;;;;;;;;;;;;;;5069953;28;1067;-72
2022/05/02 14:59:13;;;;;;;;;;;;;;;;;;5070392;28;949;-72
2022/05/02 15:01:40;;;;;;;;;;;;;;;;;;5069653;28;2345;-72
2022/05/02 15:04:06;;;;;;;;;;;;;;;;;;5072720;28;936;-72
2022/05/02 15:06:33;;;;;;;;;;;;;;;;;;5073707;28;1079;-73
2022/05/02 15:09:08;;;;;;;;;;;;;;;;;;5059032;28;1529;-72
2022/05/02 15:11:36;;;;;;;;;;;;;;;;;;5053766;28;1306;-73
2022/05/02 15:14:32;;;;;;;;;;;;;;;;;;5053920;28;1027;-72
2022/05/02 15:17:08;;;;;;;;;;;;;;;;;;5046503;28;1245;-72
2022/05/02 15:19:41;;;;;;;;;;;;;;;;;;5069527;28;2166;-73
2022/05/02 15:22:12;;;;;;;;;;;;;;;;;;5074082;28;1909;-73
2022/05/02 15:24:47;;;;;;;;;;;;;;;;;;5073655;28;810;-73
2022/05/02 15:38:51;;;;;;;;;;;;;;;;;;5072276;28;1204;-72
2022/05/02 15:41:38;;;;;;;;;;;;;;;;;;5073217;28;1973;-72
2022/05/02 15:44:08;;;;;;;;;;;;;;;;;;5073751;28;1246;-71
2022/05/02 15:46:40;;;;;;;;;;;;;;;;;;5073035;28;1126;-73
2022/05/02 15:49:06;;;;;;;;;;;;;;;;;;5073510;28;976;-72
2022/05/02 15:51:32;;;;;;;;;;;;;;;;;;5072985;28;1404;-72
2022/05/02 15:54:17;;;;;;;;;;;;;;;;;;5073513;28;1079;-73
2022/05/02 15:56:44;;;;;;;;;;;;;;;;;;5072920;28;1676;-71
2022/05/02 15:59:13;;;;;;;;;;;;;;;;;;5073894;28;1115;-73
2022/05/02 16:01:54;;;;;;;;;;;;;;;;;;5073792;28;2009;-73
2022/05/02 16:04:22;;;;;;;;;;;;;;;;;;5074712;28;977;-73
2022/05/02 16:06:49;;;;;;;;;;;;;;;;;;5074461;28;1068;-74
2022/05/02 16:12:07;;;;;;;;;;;;;;;;;;5052355;28;1521;-74
2022/05/02 16:14:39;;;;;;;;;;;;;;;;;;5052064;28;901;-74
2022/05/02 16:17:06;;;;;;;;;;;;;;;;;;5052531;28;1210;-74
2022/05/02 16:19:32;;;;;;;;;;;;;;;;;;5052674;28;1088;-74
2022/05/02 16:21:59;;;;;;;;;;;;;;;;;;5053755;28;1912;-75
2022/05/02 16:24:27;;;;;;;;;;;;;;;;;;5053710;28;1064;-74
2022/05/02 16:26:54;;;;;;;;;;;;;;;;;;5053023;28;1100;-72
2022/05/02 16:29:22;;;;;;;;;;;;;;;;;;5051974;28;1347;-74
2022/05/02 16:31:48;;;;;;;;;;;;;;;;;;5050917;28;1802;-74
2022/05/02 16:34:14;;;;;;;;;;;;;;;;;;5046049;28;1154;-74
2022/05/02 16:36:41;;;;;;;;;;;;;;;;;;5055167;28;1458;-71
2022/05/02 16:39:07;;;;;;;;;;;;;;;;;;5052248;28;1318;-74
2022/05/02 16:41:33;;;;;;;;;;;;;;;;;;5039937;28;1969;-74
2022/05/02 16:44:01;;;;;;;;;;;;;;;;;;5046098;28;1395;-72
2022/05/02 16:46:29;;;;;;;;;;;;;;;;;;5050419;28;1406;-73
2022/05/02 16:48:56;;;;;;;;;;;;;;;;;;5048841;28;1511;-74
2022/05/02 16:51:25;;;;;;;;;;;;;;;;;;5045199;28;1514;-73
2022/05/02 16:53:52;;;;;;;;;;;;;;;;;;5044813;28;1576;-72
2022/05/02 16:56:19;;;;;;;;;;;;;;;;;;5042156;28;1477;-74
2022/05/02 16:58:45;;;;;;;;;;;;;;;;;;5044791;28;1403;-74
2022/05/02 17:01:15;;;;;;;;;;;;;;;;;;5047166;28;1918;-73
2022/05/02 17:03:46;;;;;;;;;;;;;;;;;;5045123;28;1383;-74
2022/05/02 17:06:12;;;;;;;;;;;;;;;;;;5048560;28;1406;-74
2022/05/02 17:08:38;;;;;;;;;;;;;;;;;;5046711;28;1374;-73
2022/05/02 17:11:05;;;;;;;;;;;;;;;;;;5049442;28;1371;-73
2022/05/02 17:13:32;;;;;;;;;;;;;;;;;;5051610;28;1337;-73
2022/05/02 17:16:05;;;;;;;;;;;;;;;;;;5045440;28;1323;-72
2022/05/02 17:18:33;;;;;;;;;;;;;;;;;;5040718;28;1530;-73
2022/05/02 17:21:02;;;;;;;;;;;;;;;;;;5049605;28;1907;-72
2022/05/02 17:23:35;;;;;;;;;;;;;;;;;;5044885;28;1434;-72
2022/05/02 17:26:03;;;;;;;;;;;;;;;;;;5046858;28;1366;-72
2022/05/02 17:28:30;;;;;;;;;;;;;;;;;;5043778;28;1462;-72
2022/05/02 17:30:56;;;;;;;;;;;;;;;;;;5047831;28;1410;-72
2022/05/02 17:33:23;;;;;;;;;;;;;;;;;;5050803;28;1349;-72
2022/05/02 17:35:53;;;;;;;;;;;;;;;;;;5049377;28;1474;-72
2022/05/02 17:38:21;;;;;;;;;;;;;;;;;;5048217;28;1649;-73
2022/05/02 17:40:47;;;;;;;;;;;;;;;;;;5031008;28;1419;-73
2022/05/02 17:43:14;;;;;;;;;;;;;;;;;;5044231;28;1914;-73
2022/05/02 17:45:41;;;;;;;;;;;;;;;;;;5047456;28;1411;-73
2022/05/02 17:48:09;;;;;;;;;;;;;;;;;;5050137;28;1238;-72
2022/05/02 17:50:37;;;;;;;;;;;;;;;;;;5051062;28;1399;-72
2022/05/02 17:53:04;;;;;;;;;;;;;;;;;;5049344;28;1418;-73
2022/05/02 17:55:33;;;;;;;;;;;;;;;;;;5044756;28;1585;-71
2022/05/02 17:58:01;;;;;;;;;;;;;;;;;;5047079;28;1402;-72
2022/05/02 18:00:28;;;;;;;;;;;;;;;;;;5043269;28;1419;-72